createdAt,value
2019-02-08T00:00:56.294Z,34.00
2019-02-08T00:03:24.432Z,32.60
2019-02-08T00:05:53.899Z,32.17
2019-02-08T00:08:22.453Z,33.73
2019-02-08T00:10:50.488Z,30.73
2019-02-08T00:13:18.632Z,28.13
2019-02-08T00:15:46.836Z,33.57
2019-02-08T00:18:14.905Z,26.30
2019-02-08T00:20:43.184Z,30.97
2019-02-08T00:23:11.263Z,27.50
2019-02-08T00:25:39.940Z,27.33
2019-02-08T00:28:08.256Z,32.87
2019-02-08T00:30:36.295Z,27.10
2019-02-08T00:33:04.716Z,24.50
2019-02-08T00:35:32.776Z,28.10
2019-02-08T00:38:00.784Z,23.13
2019-02-08T00:40:28.911Z,29.27
2019-02-08T00:42:57.652Z,21.33
2019-02-08T00:45:25.741Z,22.20
2019-02-08T00:47:53.793Z,24.27
2019-02-08T00:50:21.844Z,24.53
2019-02-08T00:52:49.908Z,22.40
2019-02-08T00:55:18.260Z,23.47
2019-02-08T00:57:46.303Z,21.60
2019-02-08T01:00:15.225Z,23.10
2019-02-08T01:02:45.180Z,23.17
2019-02-08T01:05:15.224Z,20.77
2019-02-08T01:07:43.263Z,18.40
2019-02-08T01:10:15.404Z,16.13
2019-02-08T01:12:43.352Z,19.40
2019-02-08T01:15:11.760Z,22.03
2019-02-08T01:17:40.111Z,18.37
2019-02-08T01:20:11.299Z,19.63
2019-02-08T01:22:39.351Z,23.73
2019-02-08T01:25:10.738Z,20.67
2019-02-08T01:27:38.888Z,18.27
2019-02-08T01:30:10.268Z,18.00
2019-02-08T01:32:38.323Z,26.20
2019-02-08T01:35:07.076Z,25.73
2019-02-08T01:37:35.153Z,20.57
2019-02-08T01:40:04.575Z,23.97
2019-02-08T01:42:32.439Z,21.43
2019-02-08T01:45:02.147Z,23.13
2019-02-08T01:47:30.177Z,22.23
2019-02-08T01:49:58.245Z,25.93
2019-02-08T01:52:26.296Z,22.53
2019-02-08T01:54:54.331Z,25.17
2019-02-08T01:57:22.640Z,20.33
2019-02-08T01:59:50.787Z,25.53
2019-02-08T02:02:18.812Z,24.63
2019-02-08T02:04:49.440Z,23.57
2019-02-08T02:07:17.543Z,22.60
2019-02-08T02:09:45.781Z,22.67
2019-02-08T02:12:16.975Z,21.80
2019-02-08T02:14:45.209Z,24.80
2019-02-08T02:17:13.445Z,25.67
2019-02-08T02:19:41.540Z,25.33
2019-02-08T02:22:09.576Z,24.33
2019-02-08T02:24:37.664Z,29.17
2019-02-08T02:27:05.716Z,25.13
2019-02-08T02:29:33.759Z,23.80
2019-02-08T02:32:02.748Z,24.73
2019-02-08T02:34:30.952Z,23.90
2019-02-08T02:36:59.177Z,20.63
2019-02-08T02:39:27.332Z,22.93
2019-02-08T02:41:55.363Z,29.07
2019-02-08T02:44:23.508Z,21.67
2019-02-08T02:46:51.825Z,22.53
2019-02-08T02:49:19.881Z,20.40
2019-02-08T02:51:47.921Z,24.07
2019-02-08T02:54:15.956Z,23.17
2019-02-08T02:56:44.158Z,18.90
2019-02-08T02:59:12.124Z,21.10
2019-02-08T03:01:40.375Z,23.97
2019-02-08T03:04:08.620Z,24.20
2019-02-08T03:06:36.702Z,25.63
2019-02-08T03:09:08.103Z,25.33
2019-02-08T03:11:36.039Z,27.43
2019-02-08T03:14:04.625Z,22.90
2019-02-08T03:16:32.691Z,21.03
2019-02-08T03:19:00.847Z,27.63
2019-02-08T03:21:29.068Z,23.50
2019-02-08T03:23:57.182Z,28.57
2019-02-08T03:26:25.459Z,21.40
2019-02-08T03:28:53.612Z,21.73
2019-02-08T03:31:23.041Z,24.60
2019-02-08T03:33:51.204Z,24.07
2019-02-08T03:36:19.127Z,22.00
2019-02-08T03:38:47.089Z,24.10
2019-02-08T03:41:15.119Z,21.83
2019-02-08T03:43:43.236Z,25.93
2019-02-08T03:46:11.288Z,24.40
2019-02-08T03:48:39.426Z,24.17
2019-02-08T03:51:07.443Z,29.03
2019-02-08T03:53:35.491Z,25.50
2019-02-08T03:56:04.045Z,25.40
2019-02-08T03:58:32.277Z,28.53
2019-02-08T04:01:04.947Z,27.10
2019-02-08T04:03:32.975Z,28.97
2019-02-08T04:06:01.260Z,23.33
2019-02-08T04:08:29.492Z,26.37
2019-02-08T04:10:57.610Z,27.43
2019-02-08T04:13:25.723Z,28.27
2019-02-08T04:15:53.998Z,29.33
2019-02-08T04:18:22.015Z,28.70
2019-02-08T04:20:49.913Z,25.70
2019-02-08T04:23:17.955Z,32.07
2019-02-08T04:25:46.218Z,25.73
2019-02-08T04:28:14.223Z,29.47
2019-02-08T04:30:42.351Z,28.30
2019-02-08T04:33:10.400Z,28.23
2019-02-08T04:35:38.479Z,26.53
2019-02-08T04:38:06.471Z,30.93
2019-02-08T04:40:34.597Z,30.63
2019-02-08T04:43:02.654Z,35.07
2019-02-08T04:45:32.392Z,31.33
2019-02-08T04:48:00.623Z,32.80
2019-02-08T04:50:28.727Z,29.90
2019-02-08T04:52:57.472Z,33.37
2019-02-08T04:55:26.003Z,30.23
2019-02-08T04:57:54.155Z,33.97
2019-02-08T05:00:27.361Z,28.43
2019-02-08T05:02:55.799Z,28.80
2019-02-08T05:05:23.872Z,31.57
2019-02-08T05:07:52.051Z,31.77
2019-02-08T05:10:22.787Z,36.17
2019-02-08T05:12:51.307Z,35.93
2019-02-08T05:15:19.437Z,38.83
2019-02-08T05:17:47.595Z,32.80
2019-02-08T05:20:16.647Z,29.43
2019-02-08T05:22:44.486Z,36.70
2019-02-08T05:25:13.128Z,32.90
2019-02-08T05:27:41.457Z,39.13
2019-02-08T05:30:16.325Z,42.43
2019-02-08T05:32:44.337Z,38.43
2019-02-08T05:35:12.512Z,37.53
2019-02-08T05:37:40.747Z,38.97
2019-02-08T05:40:11.411Z,40.70
2019-02-08T05:42:39.324Z,36.23
2019-02-08T05:45:09.875Z,41.97
2019-02-08T05:47:38.000Z,39.87
2019-02-08T05:50:08.579Z,42.33
2019-02-08T05:52:36.652Z,38.27
2019-02-08T05:55:08.069Z,42.23
2019-02-08T05:57:35.985Z,42.93
2019-02-08T06:00:30.941Z,36.43
2019-02-08T06:02:59.029Z,37.50
2019-02-08T06:05:27.291Z,36.17
2019-02-08T06:07:58.307Z,37.20
2019-02-08T06:10:26.223Z,35.77
2019-02-08T06:12:54.259Z,36.13
2019-02-08T06:15:22.159Z,37.77
2019-02-08T06:17:50.100Z,38.77
2019-02-08T06:20:19.115Z,36.30
2019-02-08T06:22:47.121Z,35.83
2019-02-08T06:25:15.523Z,34.53
2019-02-08T06:27:43.572Z,37.37
2019-02-08T06:30:14.792Z,33.93
2019-02-08T06:32:42.631Z,32.63
2019-02-08T06:35:11.095Z,31.90
2019-02-08T06:37:44.141Z,32.43
2019-02-08T06:40:10.813Z,32.00
2019-02-08T06:42:38.762Z,29.80
2019-02-08T06:45:08.787Z,29.53
2019-02-08T06:47:36.787Z,30.33
2019-02-08T06:50:06.062Z,28.07
2019-02-08T06:52:33.876Z,33.30
2019-02-08T06:55:01.695Z,26.90
2019-02-08T06:57:55.267Z,26.53
2019-02-08T07:00:46.017Z,26.43
2019-02-08T07:03:28.316Z,25.47
2019-02-08T07:06:25.240Z,28.47
2019-02-08T07:09:04.918Z,25.83
2019-02-08T07:11:52.411Z,25.73
2019-02-08T07:14:39.851Z,23.50
2019-02-08T07:17:28.791Z,24.77
2019-02-08T07:20:14.880Z,20.93
2019-02-08T07:23:14.648Z,25.50
2019-02-08T07:25:53.935Z,19.13
2019-02-08T07:28:33.569Z,20.27
2019-02-08T07:31:21.063Z,19.37
2019-02-08T07:34:04.473Z,19.20
2019-02-08T07:36:44.784Z,14.77
2019-02-08T07:39:30.867Z,16.67
2019-02-08T07:42:17.849Z,13.07
2019-02-08T07:45:11.948Z,18.97
2019-02-08T07:48:00.620Z,12.20
2019-02-08T07:50:37.441Z,14.93
2019-02-08T07:53:21.860Z,14.07
2019-02-08T07:56:09.459Z,11.60
2019-02-08T07:58:57.058Z,12.67
2019-02-08T08:01:56.755Z,11.20
2019-02-08T08:04:57.978Z,11.27
2019-02-08T08:07:39.058Z,9.77
2019-02-08T08:10:30.778Z,8.43
2019-02-08T08:13:21.371Z,6.63
2019-02-08T08:16:07.624Z,7.40
2019-02-08T08:19:04.316Z,8.07
2019-02-08T08:21:50.432Z,8.60
2019-02-08T08:24:40.100Z,5.60
2019-02-08T08:27:33.161Z,6.17
2019-02-08T08:30:09.945Z,5.40
2019-02-08T08:33:05.908Z,6.47
2019-02-08T08:36:02.624Z,4.87
2019-02-08T08:38:59.340Z,4.70
2019-02-08T08:41:49.436Z,6.13
2019-02-08T08:44:36.861Z,5.30
2019-02-08T08:47:19.159Z,4.80
2019-02-08T08:50:06.471Z,5.93
2019-02-08T08:53:01.060Z,4.50
2019-02-08T08:55:48.393Z,5.27
2019-02-08T08:58:42.012Z,3.77
2019-02-08T09:01:32.700Z,2.40
2019-02-08T09:04:18.848Z,3.60
2019-02-08T09:07:04.972Z,3.80
2019-02-08T09:10:04.380Z,3.90
2019-02-08T09:12:37.770Z,2.50
2019-02-08T09:15:34.262Z,2.77
2019-02-08T09:18:23.897Z,2.13
2019-02-08T09:21:14.230Z,2.27
2019-02-08T09:24:00.090Z,2.17
2019-02-08T09:26:51.087Z,3.43
2019-02-08T09:29:26.624Z,1.77
2019-02-08T09:32:06.227Z,2.23
2019-02-08T09:35:12.316Z,2.83
2019-02-08T09:38:06.280Z,1.83
2019-02-08T09:40:48.879Z,3.07
2019-02-08T09:43:45.123Z,2.37
2019-02-08T09:46:25.208Z,2.47
2019-02-08T09:49:11.436Z,1.70
2019-02-08T09:51:56.782Z,2.23
2019-02-08T09:54:48.947Z,2.40
2019-02-08T09:57:42.404Z,1.37
2019-02-08T10:00:17.756Z,1.00
2019-02-08T10:02:54.411Z,2.93
2019-02-08T10:05:45.047Z,3.47
2019-02-08T10:08:31.561Z,3.33
2019-02-08T10:11:34.464Z,1.60
2019-02-08T10:14:13.307Z,1.70
2019-02-08T10:17:19.187Z,3.53
2019-02-08T10:20:06.523Z,2.43
2019-02-08T10:22:59.260Z,2.83
2019-02-08T10:25:45.431Z,1.83
2019-02-08T10:28:32.078Z,0.93
2019-02-08T10:31:29.040Z,0.80
2019-02-08T10:34:11.343Z,1.53
2019-02-08T10:36:57.628Z,0.90
2019-02-08T10:39:51.053Z,3.27
2019-02-08T10:42:29.582Z,0.63
2019-02-08T10:45:34.919Z,1.20
2019-02-08T10:48:31.327Z,0.93
2019-02-08T10:51:18.687Z,1.33
2019-02-08T10:53:59.740Z,2.83
2019-02-08T10:56:45.800Z,1.10
2019-02-08T10:59:45.576Z,1.10
2019-02-08T11:02:33.203Z,2.70
2019-02-08T11:05:26.572Z,1.90
2019-02-08T11:08:32.294Z,1.47
2019-02-08T11:11:35.166Z,1.00
2019-02-08T11:14:28.916Z,1.00
2019-02-08T11:17:20.463Z,0.90
2019-02-08T11:19:54.059Z,1.90
2019-02-08T11:22:23.162Z,1.33
2019-02-08T11:24:51.043Z,1.27
2019-02-08T11:27:19.018Z,0.73
2019-02-08T11:29:47.118Z,1.47
2019-02-08T11:32:16.598Z,0.70
2019-02-08T11:34:44.649Z,0.83
2019-02-08T11:37:12.614Z,1.90
2019-02-08T11:39:40.616Z,1.60
2019-02-08T11:42:08.530Z,2.13
2019-02-08T11:44:36.934Z,2.70
2019-02-08T11:47:04.842Z,1.37
2019-02-08T11:49:32.930Z,1.40
2019-02-08T11:52:01.023Z,2.03
2019-02-08T11:54:29.210Z,1.70
2019-02-08T11:56:57.197Z,0.67
2019-02-08T11:59:25.079Z,1.33
2019-02-08T12:01:53.058Z,2.53
2019-02-08T12:04:20.954Z,1.43
2019-02-08T12:06:48.929Z,1.73
2019-02-08T12:09:18.376Z,1.27
2019-02-08T12:11:46.698Z,2.63
2019-02-08T12:14:14.658Z,0.50
2019-02-08T12:16:42.736Z,1.00
2019-02-08T12:19:10.830Z,1.13
2019-02-08T12:21:39.126Z,1.53
2019-02-08T12:24:07.798Z,1.57
2019-02-08T12:26:37.965Z,1.33
2019-02-08T12:29:06.114Z,1.53
2019-02-08T12:31:34.238Z,0.30
2019-02-08T12:34:02.381Z,0.33
2019-02-08T12:36:30.364Z,2.77
2019-02-08T12:38:58.253Z,0.60
2019-02-08T12:41:26.254Z,1.87
2019-02-08T12:43:54.258Z,0.27
2019-02-08T12:46:22.134Z,1.90
2019-02-08T12:48:50.121Z,0.90
2019-02-08T12:51:18.205Z,1.10
2019-02-08T12:53:46.289Z,1.37
2019-02-08T12:56:16.575Z,0.87
2019-02-08T12:58:44.570Z,0.40
2019-02-08T13:01:12.726Z,0.80
2019-02-08T13:03:40.709Z,0.43
2019-02-08T13:06:08.802Z,0.40
2019-02-08T13:08:36.806Z,0.50
2019-02-08T13:11:04.882Z,0.57
2019-02-08T13:13:32.774Z,0.90
2019-02-08T13:16:00.775Z,0.40
2019-02-08T13:18:28.864Z,0.80
2019-02-08T13:20:56.850Z,1.13
2019-02-08T13:23:24.752Z,0.23
2019-02-08T13:25:52.735Z,1.83
2019-02-08T13:28:20.814Z,0.40
2019-02-08T13:30:49.158Z,0.50
2019-02-08T13:33:17.043Z,2.60
2019-02-08T13:35:45.046Z,3.60
2019-02-08T13:38:13.049Z,4.00
2019-02-08T13:40:41.088Z,2.07
2019-02-08T13:43:09.270Z,1.67
2019-02-08T13:45:37.459Z,1.83
2019-02-08T13:48:05.650Z,1.40
2019-02-08T13:50:33.550Z,1.10
2019-02-08T13:53:01.581Z,1.57
2019-02-08T13:55:29.676Z,0.80
2019-02-08T13:57:57.662Z,0.80
2019-02-08T14:00:27.086Z,0.57
2019-02-08T14:02:54.967Z,0.70
2019-02-08T14:05:22.956Z,0.60
2019-02-08T14:07:51.142Z,0.50
2019-02-08T14:10:19.146Z,1.90
2019-02-08T14:12:47.052Z,1.50
2019-02-08T14:15:15.502Z,0.97
2019-02-08T14:17:43.510Z,3.13
2019-02-08T14:20:12.881Z,0.87
2019-02-08T14:22:41.166Z,0.50
2019-02-08T14:25:09.446Z,0.60
2019-02-08T14:27:37.535Z,0.70
2019-02-08T14:30:07.353Z,0.93
2019-02-08T14:32:35.540Z,0.40
2019-02-08T14:35:04.078Z,1.33
2019-02-08T14:37:32.295Z,0.30
2019-02-08T14:40:19.827Z,0.53
2019-02-08T14:42:47.810Z,0.93
2019-02-08T14:45:16.018Z,0.93
2019-02-08T14:47:44.118Z,1.67
2019-02-08T14:50:13.602Z,0.80
2019-02-08T14:52:41.591Z,1.23
2019-02-08T14:55:09.603Z,0.67
2019-02-08T14:57:37.518Z,0.80
2019-02-08T15:00:07.117Z,2.50
2019-02-08T15:02:35.114Z,0.77
2019-02-08T15:05:04.013Z,0.73
2019-02-08T15:07:32.490Z,0.50
2019-02-08T15:10:00.429Z,1.80
2019-02-08T15:12:28.806Z,0.60
2019-02-08T15:14:56.685Z,0.80
2019-02-08T15:17:24.606Z,0.70
2019-02-08T15:19:52.586Z,1.73
2019-02-08T15:22:20.670Z,3.60
2019-02-08T15:24:48.755Z,2.33
2019-02-08T15:27:24.035Z,3.97
2019-02-08T15:29:46.438Z,2.03
2019-02-08T15:32:15.468Z,1.90
2019-02-08T15:34:43.442Z,1.50
2019-02-08T15:37:11.662Z,1.60
2019-02-08T15:39:39.639Z,1.13
2019-02-08T15:42:07.973Z,1.73
2019-02-08T15:44:36.962Z,3.30
2019-02-08T15:47:04.977Z,1.50
2019-02-08T15:49:33.766Z,2.00
2019-02-08T15:52:01.751Z,2.40
2019-02-08T15:54:29.653Z,3.87
2019-02-08T15:56:57.636Z,0.73
2019-02-08T15:59:25.742Z,1.73
2019-02-08T16:01:53.892Z,2.83
2019-02-08T16:04:21.871Z,1.70
2019-02-08T16:06:51.594Z,1.27
2019-02-08T16:09:19.538Z,1.53
2019-02-08T16:11:47.627Z,3.07
2019-02-08T16:14:15.722Z,2.60
2019-02-08T16:16:44.058Z,1.37
2019-02-08T16:19:12.242Z,1.17
2019-02-08T16:21:40.318Z,1.97
2019-02-08T16:24:08.610Z,1.47
2019-02-08T16:26:36.593Z,5.27
2019-02-08T16:29:04.890Z,0.50
2019-02-08T16:31:33.454Z,2.63
2019-02-08T16:34:01.427Z,2.87
2019-02-08T16:36:29.554Z,3.67
2019-02-08T16:38:57.670Z,0.67
2019-02-08T16:41:25.702Z,1.03
2019-02-08T16:43:53.885Z,1.43
2019-02-08T16:46:22.169Z,1.33
2019-02-08T16:48:50.154Z,0.93
2019-02-08T16:51:18.250Z,4.30
2019-02-08T16:53:53.332Z,1.13
2019-02-08T16:56:16.314Z,1.90
2019-02-08T16:58:44.405Z,1.63
2019-02-08T17:01:12.750Z,1.30
2019-02-08T17:03:40.750Z,6.20
2019-02-08T17:06:10.466Z,2.30
2019-02-08T17:08:38.478Z,2.90
2019-02-08T17:11:07.574Z,2.60
2019-02-08T17:13:35.880Z,4.17
2019-02-08T17:16:05.247Z,2.83
2019-02-08T17:18:33.138Z,2.63
2019-02-08T17:21:01.210Z,5.20
2019-02-08T17:23:29.326Z,1.10
2019-02-08T17:25:57.410Z,3.27
2019-02-08T17:28:25.526Z,2.97
2019-02-08T17:30:53.524Z,3.50
2019-02-08T17:33:21.637Z,1.70
2019-02-08T17:35:49.711Z,1.07
2019-02-08T17:38:17.813Z,2.10
2019-02-08T17:40:46.285Z,2.80
2019-02-08T17:43:14.178Z,2.43
2019-02-08T17:45:42.288Z,3.10
2019-02-08T17:48:12.330Z,2.50
2019-02-08T17:50:40.614Z,3.37
2019-02-08T17:53:08.615Z,4.10
2019-02-08T17:55:36.686Z,3.97
2019-02-08T17:58:04.881Z,3.40
2019-02-08T18:01:04.978Z,4.67
2019-02-08T18:03:33.366Z,2.97
2019-02-08T18:06:01.538Z,2.10
2019-02-08T18:08:29.622Z,5.10
2019-02-08T18:10:57.511Z,2.63
2019-02-08T18:13:25.502Z,3.47
2019-02-08T18:15:53.581Z,3.60
2019-02-08T18:18:22.501Z,4.13
2019-02-08T18:20:51.669Z,3.33
2019-02-08T18:23:19.550Z,2.17
2019-02-08T18:25:47.919Z,2.83
2019-02-08T18:28:16.660Z,3.23
2019-02-08T18:30:45.429Z,1.60
2019-02-08T18:33:14.305Z,1.13
2019-02-08T18:35:43.379Z,5.67
2019-02-08T18:38:11.575Z,2.77
2019-02-08T18:40:39.754Z,3.13
2019-02-08T18:43:07.843Z,3.07
2019-02-08T18:45:36.354Z,3.20
2019-02-08T18:48:04.511Z,2.37
2019-02-08T18:50:33.554Z,3.80
2019-02-08T18:53:01.442Z,4.67
2019-02-08T18:55:29.430Z,1.90
2019-02-08T18:57:57.402Z,4.13
2019-02-08T19:00:26.747Z,3.50
2019-02-08T19:02:54.733Z,2.70
2019-02-08T19:05:22.826Z,2.03
2019-02-08T19:07:50.918Z,4.00
2019-02-08T19:10:19.114Z,3.23
2019-02-08T19:12:47.137Z,6.13
2019-02-08T19:15:15.789Z,3.73
2019-02-08T19:17:43.958Z,3.97
2019-02-08T19:20:13.364Z,2.70
2019-02-08T19:22:41.562Z,2.30
2019-02-08T19:25:12.802Z,3.50
2019-02-08T19:27:40.794Z,3.27
2019-02-08T19:30:11.145Z,4.23
2019-02-08T19:32:39.346Z,6.03
2019-02-08T19:35:07.636Z,3.00
2019-02-08T19:37:35.750Z,3.47
2019-02-08T19:40:05.210Z,4.43
2019-02-08T19:42:33.103Z,4.03
2019-02-08T19:45:01.202Z,1.97
2019-02-08T19:47:29.560Z,3.10
2019-02-08T19:49:57.642Z,3.30
2019-02-08T19:52:45.193Z,3.37
2019-02-08T19:55:13.186Z,5.83
2019-02-08T19:57:41.305Z,4.50
2019-02-08T20:00:10.565Z,5.37
2019-02-08T20:02:38.505Z,4.33
2019-02-08T20:05:08.673Z,8.73
2019-02-08T20:07:36.781Z,6.17
2019-02-08T20:10:05.926Z,3.00
2019-02-08T20:12:33.819Z,5.03
2019-02-08T20:15:01.813Z,5.40
2019-02-08T20:17:29.802Z,3.67
2019-02-08T20:19:57.890Z,2.87
2019-02-08T20:22:25.918Z,4.57
2019-02-08T20:24:54.001Z,6.10
2019-02-08T20:27:21.908Z,8.50
2019-02-08T20:29:49.892Z,5.53
2019-02-08T20:32:17.874Z,3.77
2019-02-08T20:34:45.776Z,3.20
2019-02-08T20:37:13.758Z,3.17
2019-02-08T20:39:41.874Z,7.17
2019-02-08T20:42:09.866Z,3.33
2019-02-08T20:44:37.958Z,2.63
2019-02-08T20:47:06.053Z,3.10
2019-02-08T20:49:34.190Z,3.90
2019-02-08T20:52:02.163Z,3.70
2019-02-08T20:54:30.434Z,3.27
2019-02-08T20:56:59.152Z,6.17
2019-02-08T20:59:27.282Z,2.37
2019-02-08T21:01:55.374Z,5.63
2019-02-08T21:04:23.525Z,2.57
2019-02-08T21:06:51.535Z,3.57
2019-02-08T21:09:19.511Z,2.63
2019-02-08T21:11:47.413Z,2.70
2019-02-08T21:14:15.447Z,4.47
2019-02-08T21:16:43.433Z,4.97
2019-02-08T21:19:11.310Z,7.03
2019-02-08T21:21:39.100Z,5.43
2019-02-08T21:24:07.094Z,5.80
2019-02-08T21:26:35.173Z,3.50
2019-02-08T21:29:03.261Z,7.27
2019-02-08T21:31:31.247Z,5.90
2019-02-08T21:33:59.412Z,4.73
2019-02-08T21:36:27.381Z,5.43
2019-02-08T21:38:55.514Z,3.40
2019-02-08T21:41:23.505Z,7.43
2019-02-08T21:43:51.593Z,4.80
2019-02-08T21:46:19.670Z,4.00
2019-02-08T21:48:47.744Z,3.23
2019-02-08T21:51:15.826Z,4.30
2019-02-08T21:53:43.914Z,7.20
2019-02-08T21:56:12.005Z,7.67
2019-02-08T21:58:40.020Z,4.47
2019-02-08T22:01:07.901Z,5.50
2019-02-08T22:03:35.918Z,4.43
2019-02-08T22:06:05.413Z,6.03
2019-02-08T22:08:33.587Z,2.70
2019-02-08T22:11:01.578Z,3.13
2019-02-08T22:13:29.921Z,3.93
2019-02-08T22:15:58.074Z,6.20
2019-02-08T22:18:26.177Z,3.47
2019-02-08T22:20:54.273Z,4.07
2019-02-08T22:23:22.346Z,6.97
2019-02-08T22:25:50.435Z,5.30
2019-02-08T22:28:18.522Z,6.93
2019-02-08T22:30:46.655Z,5.57
2019-02-08T22:33:14.938Z,7.87
2019-02-08T22:35:42.944Z,6.60
2019-02-08T22:38:11.126Z,7.93
2019-02-08T22:40:39.493Z,3.77
2019-02-08T22:43:07.577Z,4.87
2019-02-08T22:45:37.677Z,7.50
2019-02-08T22:48:06.992Z,6.20
2019-02-08T22:50:35.524Z,6.63
2019-02-08T22:53:05.132Z,5.67
2019-02-08T22:55:33.215Z,5.50
2019-02-08T22:58:01.486Z,8.57
2019-02-08T23:01:19.357Z,6.67
2019-02-08T23:03:47.769Z,5.17
2019-02-08T23:06:16.069Z,6.73
2019-02-08T23:08:44.494Z,6.93
2019-02-08T23:11:12.856Z,5.73
2019-02-08T23:13:40.914Z,6.87
2019-02-08T23:16:08.979Z,7.13
2019-02-08T23:18:37.077Z,5.37
2019-02-08T23:21:05.465Z,6.50
2019-02-08T23:23:33.455Z,6.60
2019-02-08T23:26:01.440Z,10.27
2019-02-08T23:28:29.871Z,6.67
2019-02-08T23:30:58.049Z,6.37
2019-02-08T23:33:26.322Z,11.33
2019-02-08T23:35:54.481Z,8.67
2019-02-08T23:38:22.875Z,7.40
2019-02-08T23:40:51.250Z,5.67
2019-02-08T23:43:19.226Z,9.93
2019-02-08T23:45:47.289Z,8.70
2019-02-08T23:48:15.351Z,6.63
2019-02-08T23:50:43.493Z,8.10
2019-02-08T23:53:11.577Z,8.53
2019-02-08T23:55:39.661Z,8.60
2019-02-08T23:58:07.727Z,14.23
